createdAt,value
2023-04-10T05:01:10.505Z,25.00
2023-04-10T05:02:10.602Z,25.00
2023-04-10T05:03:11.189Z,25.00
2023-04-10T05:04:10.650Z,25.00
2023-04-10T05:05:10.607Z,25.00
2023-04-10T05:06:10.589Z,25.00
2023-04-10T05:07:10.730Z,0.00
2023-04-10T05:08:10.716Z,0.00
2023-04-10T05:09:10.653Z,0.00
2023-04-10T05:10:11.612Z,0.00
2023-04-10T05:11:10.730Z,0.00
2023-04-10T05:12:10.729Z,0.00
2023-04-10T05:13:18.185Z,0.00
2023-04-10T05:14:10.672Z,0.00
2023-04-10T05:15:10.687Z,0.00
2023-04-10T05:16:10.731Z,0.00
2023-04-10T05:17:10.678Z,0.00
2023-04-10T05:18:10.723Z,0.00
2023-04-10T05:19:10.614Z,0.00
2023-04-10T05:20:10.604Z,0.00
2023-04-10T05:21:10.606Z,0.00
2023-04-10T05:22:10.614Z,0.00
2023-04-10T05:23:10.615Z,0.00
2023-04-10T05:24:10.575Z,0.00
2023-04-10T05:25:10.606Z,0.00
2023-04-10T05:26:10.554Z,0.00
2023-04-10T05:27:10.587Z,0.00
2023-04-10T05:28:10.554Z,0.00
2023-04-10T05:29:10.550Z,0.00
2023-04-10T05:30:10.514Z,0.00
2023-04-10T05:31:10.606Z,0.00
2023-04-10T05:32:10.528Z,0.00
2023-04-10T05:33:10.543Z,0.00
2023-04-10T05:34:10.500Z,0.00
2023-04-10T05:35:10.495Z,0.00
2023-04-10T05:36:10.536Z,0.00
2023-04-10T05:37:10.475Z,0.00
2023-04-10T05:38:10.473Z,0.00
2023-04-10T05:39:10.474Z,0.00
2023-04-10T05:40:10.511Z,0.00
2023-04-10T05:41:10.480Z,0.00
2023-04-10T05:42:10.479Z,0.00
2023-04-10T05:43:10.434Z,0.00
2023-04-10T05:44:10.431Z,3.15
2023-04-10T05:45:10.460Z,25.00
2023-04-10T05:46:10.441Z,29.45
2023-04-10T05:47:10.439Z,25.00
2023-04-10T05:48:10.422Z,25.13
2023-04-10T05:49:10.422Z,28.23
2023-04-10T05:50:10.374Z,28.72
2023-04-10T05:51:10.377Z,24.86
2023-04-10T05:52:10.426Z,25.00
2023-04-10T05:53:10.432Z,27.81
2023-04-10T05:54:10.425Z,37.70
2023-04-10T05:55:10.474Z,28.24
2023-04-10T05:56:10.467Z,27.84
2023-04-10T05:57:10.564Z,25.24
2023-04-10T05:58:10.536Z,29.22
2023-04-10T05:59:10.510Z,34.05
2023-04-10T06:00:10.533Z,30.93
2023-04-10T06:01:10.570Z,25.00
2023-04-10T06:02:10.611Z,32.77
2023-04-10T06:03:10.680Z,32.17
2023-04-10T06:04:10.785Z,26.41
2023-04-10T06:05:10.731Z,28.18
2023-04-10T06:06:10.592Z,34.30
2023-04-10T06:07:10.642Z,33.41
2023-04-10T06:08:10.665Z,25.67
2023-04-10T06:09:10.686Z,29.02
2023-04-10T06:10:10.677Z,30.95
2023-04-10T06:11:10.699Z,30.78
2023-04-10T06:12:10.695Z,29.84
2023-04-10T06:13:11.403Z,36.70
2023-04-10T06:14:10.734Z,31.04
2023-04-10T06:15:10.765Z,25.00
2023-04-10T06:16:10.892Z,25.00
2023-04-10T06:17:10.752Z,34.75
2023-04-10T06:18:10.767Z,33.71
2023-04-10T06:19:10.844Z,29.53
2023-04-10T06:20:10.811Z,30.33
2023-04-10T06:21:10.802Z,29.89
2023-04-10T06:22:10.842Z,31.89
2023-04-10T06:23:10.841Z,25.00
2023-04-10T06:24:12.365Z,33.32
2023-04-10T06:25:10.876Z,25.06
2023-04-10T06:26:10.923Z,32.00
2023-04-10T06:27:10.950Z,34.39
2023-04-10T06:28:10.920Z,36.16
2023-04-10T06:29:10.947Z,28.78
2023-04-10T06:30:10.968Z,31.60
2023-04-10T06:31:10.971Z,39.84
2023-04-10T06:32:10.993Z,32.59
2023-04-10T06:33:10.986Z,29.27
2023-04-10T06:34:11.015Z,31.92
2023-04-10T06:35:10.983Z,31.23
2023-04-10T06:36:11.072Z,32.85
2023-04-10T06:37:11.014Z,35.68
2023-04-10T06:38:11.018Z,32.90
2023-04-10T06:39:11.057Z,37.26
2023-04-10T06:40:11.122Z,35.53
2023-04-10T06:41:11.156Z,43.32
2023-04-10T06:42:11.096Z,33.53
2023-04-10T06:43:11.147Z,35.99
2023-04-10T06:44:11.503Z,40.12
2023-04-10T06:45:11.188Z,33.95
2023-04-10T06:46:11.177Z,47.12
2023-04-10T06:47:11.232Z,32.68
2023-04-10T06:48:11.238Z,31.67
2023-04-10T06:49:11.232Z,28.78
2023-04-10T06:50:11.250Z,34.85
2023-04-10T06:51:11.268Z,31.40
2023-04-10T06:52:11.305Z,32.97
2023-04-10T06:53:11.309Z,25.75
2023-04-10T06:54:11.267Z,30.34
2023-04-10T06:55:11.285Z,25.48
2023-04-10T06:56:11.331Z,26.60
2023-04-10T06:57:11.431Z,27.36
2023-04-10T06:58:11.363Z,27.18
2023-04-10T06:59:11.362Z,37.24
2023-04-10T07:00:11.439Z,39.22
2023-04-10T07:01:11.442Z,34.39
2023-04-10T07:02:11.445Z,25.92
2023-04-10T07:03:11.495Z,30.62
2023-04-10T07:04:11.473Z,27.02
2023-04-10T07:05:11.476Z,29.29
2023-04-10T07:06:11.466Z,32.52
2023-04-10T07:07:11.497Z,36.74
2023-04-10T07:08:11.569Z,34.01
2023-04-10T07:09:11.504Z,31.33
2023-04-10T07:10:11.551Z,29.45
2023-04-10T07:11:11.540Z,25.43
2023-04-10T07:12:11.544Z,26.77
2023-04-10T07:13:11.603Z,30.16
2023-04-10T07:14:11.574Z,35.30
2023-04-10T07:15:11.631Z,31.61
2023-04-10T07:16:11.663Z,39.00
2023-04-10T07:17:12.267Z,35.03
2023-04-10T07:18:11.706Z,30.93
2023-04-10T07:19:11.698Z,40.60
2023-04-10T07:20:11.775Z,33.38
2023-04-10T07:21:11.750Z,33.53
2023-04-10T07:22:11.762Z,33.25
2023-04-10T07:23:11.810Z,34.38
2023-04-10T07:24:11.810Z,30.65
2023-04-10T07:25:11.965Z,32.26
2023-04-10T07:26:11.879Z,30.90
2023-04-10T07:27:11.884Z,33.96
2023-04-10T07:28:11.917Z,26.33
2023-04-10T07:29:11.928Z,37.06
2023-04-10T07:30:13.748Z,29.42
2023-04-10T07:31:12.013Z,28.66
2023-04-10T07:32:12.100Z,29.32
2023-04-10T07:33:12.271Z,37.63
2023-04-10T07:34:12.110Z,33.76
2023-04-10T07:35:12.197Z,25.00
2023-04-10T07:36:12.149Z,29.01
2023-04-10T07:37:12.173Z,27.93
2023-04-10T07:38:12.161Z,25.97
2023-04-10T07:39:12.189Z,35.67
2023-04-10T07:40:12.237Z,31.31
2023-04-10T07:41:12.370Z,40.24
2023-04-10T07:42:12.314Z,32.35
2023-04-10T07:43:12.365Z,26.28
2023-04-10T07:44:12.335Z,33.97
2023-04-10T07:45:12.379Z,30.16
2023-04-10T07:46:12.492Z,34.63
2023-04-10T07:47:12.456Z,31.60
2023-04-10T07:48:12.458Z,40.90
2023-04-10T07:49:12.513Z,38.66
2023-04-10T07:50:12.516Z,33.00
2023-04-10T07:51:12.525Z,33.75
2023-04-10T07:52:12.569Z,30.77
2023-04-10T07:53:12.627Z,32.34
2023-04-10T07:54:12.611Z,33.53
2023-04-10T07:55:12.642Z,33.90
2023-04-10T07:56:12.666Z,44.40
2023-04-10T07:57:12.694Z,33.77
2023-04-10T07:58:12.752Z,25.00
2023-04-10T07:59:12.817Z,31.67
2023-04-10T08:00:12.855Z,38.20
2023-04-10T08:01:12.825Z,33.06
2023-04-10T08:02:12.921Z,43.50
2023-04-10T08:03:13.217Z,56.53
2023-04-10T08:04:13.073Z,60.42
2023-04-10T08:05:12.983Z,63.69
2023-04-10T08:06:13.031Z,66.13
2023-04-10T08:07:13.118Z,66.48
2023-04-10T08:08:13.182Z,70.49
2023-04-10T08:09:13.180Z,72.11
2023-04-10T08:10:13.244Z,73.72
2023-04-10T08:11:13.313Z,72.25
2023-04-10T08:12:13.399Z,71.00
2023-04-10T08:13:13.409Z,69.83
2023-04-10T08:14:13.467Z,81.28
2023-04-10T08:15:14.450Z,81.68
2023-04-10T08:16:13.452Z,82.65
2023-04-10T08:17:13.526Z,78.59
2023-04-10T08:18:13.441Z,75.31
2023-04-10T08:19:13.445Z,88.23
2023-04-10T08:20:13.455Z,87.39
2023-04-10T08:21:13.388Z,92.43
2023-04-10T08:22:13.386Z,87.77
2023-04-10T08:23:20.237Z,91.99
2023-04-10T08:24:14.404Z,92.32
2023-04-10T08:25:13.367Z,93.47
2023-04-10T08:26:13.373Z,96.62
2023-04-10T08:27:13.360Z,101.50
2023-04-10T08:28:13.357Z,106.25
2023-04-10T08:29:13.320Z,111.84
2023-04-10T08:30:13.349Z,110.36
2023-04-10T08:31:13.384Z,107.85
2023-04-10T08:32:13.406Z,113.74
2023-04-10T08:33:13.419Z,115.19
2023-04-10T08:34:13.427Z,113.72
2023-04-10T08:35:13.513Z,114.53
2023-04-10T08:36:13.598Z,112.27
2023-04-10T08:37:13.577Z,115.25
2023-04-10T08:38:14.630Z,116.12
2023-04-10T08:39:13.704Z,119.07
2023-04-10T08:40:13.740Z,115.91
2023-04-10T08:41:13.775Z,118.46
2023-04-10T08:42:13.869Z,119.38
2023-04-10T08:43:13.913Z,117.71
2023-04-10T08:44:13.993Z,118.90
2023-04-10T08:45:14.010Z,117.85
2023-04-10T08:46:14.155Z,118.41
2023-04-10T08:47:14.117Z,121.00
2023-04-10T08:48:14.197Z,121.34
2023-04-10T08:49:14.259Z,121.17
2023-04-10T08:50:14.302Z,121.05
2023-04-10T08:51:19.534Z,122.95
2023-04-10T08:52:15.349Z,123.25
2023-04-10T08:53:14.329Z,123.57
2023-04-10T08:54:14.314Z,124.61
2023-04-10T08:55:14.321Z,125.38
2023-04-10T08:56:14.314Z,126.15
2023-04-10T08:57:14.312Z,130.02
2023-04-10T08:58:14.326Z,128.20
2023-04-10T08:59:14.273Z,129.55
2023-04-10T09:00:23.020Z,127.25
2023-04-10T09:01:15.330Z,127.51
2023-04-10T09:02:14.334Z,128.09
2023-04-10T09:03:14.452Z,128.56
2023-04-10T09:04:14.318Z,127.30
2023-04-10T09:05:14.251Z,128.57
2023-04-10T09:06:14.216Z,131.21
2023-04-10T09:07:14.231Z,131.64
2023-04-10T09:08:14.241Z,132.29
2023-04-10T09:09:14.192Z,131.40
2023-04-10T09:10:14.219Z,133.50
2023-04-10T09:11:14.230Z,133.79
2023-04-10T09:12:14.306Z,131.66
2023-04-10T09:13:14.345Z,131.12
2023-04-10T09:14:14.368Z,131.54
2023-04-10T09:15:14.439Z,133.60
2023-04-10T09:16:14.469Z,132.46
2023-04-10T09:17:14.498Z,137.49
2023-04-10T09:18:14.551Z,135.79
2023-04-10T09:19:14.588Z,135.26
2023-04-10T09:20:14.658Z,134.83
2023-04-10T09:21:14.640Z,137.07
2023-04-10T09:22:14.662Z,138.70
2023-04-10T09:23:14.747Z,135.60
2023-04-10T09:24:14.757Z,135.40
2023-04-10T09:25:14.804Z,139.04
2023-04-10T09:26:14.821Z,137.61
2023-04-10T09:27:14.902Z,139.00
2023-04-10T09:28:14.990Z,137.95
2023-04-10T09:29:14.966Z,137.44
2023-04-10T09:30:15.018Z,142.65
2023-04-10T09:31:15.063Z,139.85
2023-04-10T09:32:15.113Z,138.21
2023-04-10T09:33:15.165Z,141.55
2023-04-10T09:34:15.193Z,140.71
2023-04-10T09:35:15.311Z,143.57
2023-04-10T09:36:15.292Z,143.33
2023-04-10T09:37:15.337Z,143.50
2023-04-10T09:38:15.341Z,145.55
2023-04-10T09:39:15.368Z,142.70
2023-04-10T09:40:15.480Z,141.32
2023-04-10T09:41:15.439Z,146.13
2023-04-10T09:42:15.484Z,144.56
2023-04-10T09:43:15.503Z,140.66
2023-04-10T09:44:15.580Z,141.33
2023-04-10T09:45:15.606Z,146.42
2023-04-10T09:46:15.693Z,147.73
2023-04-10T09:47:15.685Z,144.97
2023-04-10T09:48:15.703Z,145.53
2023-04-10T09:49:15.770Z,144.94
2023-04-10T09:50:15.784Z,148.81
2023-04-10T09:51:15.864Z,146.76
2023-04-10T09:52:15.871Z,148.68
2023-04-10T09:53:15.886Z,145.79
2023-04-10T09:54:15.941Z,146.02
2023-04-10T09:55:16.007Z,147.35
2023-04-10T09:56:16.042Z,147.29
2023-04-10T09:57:16.195Z,147.52
2023-04-10T09:58:16.085Z,147.37
2023-04-10T09:59:16.178Z,148.29
2023-04-10T10:00:16.196Z,148.29
2023-04-10T10:01:16.214Z,149.43
2023-04-10T10:02:16.326Z,152.60
2023-04-10T10:03:16.426Z,149.56
2023-04-10T10:04:16.419Z,145.42
2023-04-10T10:05:16.424Z,147.40
2023-04-10T10:06:16.428Z,144.86
2023-04-10T10:07:16.518Z,145.52
2023-04-10T10:08:16.504Z,144.12
2023-04-10T10:09:16.545Z,142.97
2023-04-10T10:10:16.595Z,141.81
2023-04-10T10:11:16.605Z,144.83
2023-04-10T10:12:16.658Z,139.47
2023-04-10T10:13:16.705Z,138.06
2023-04-10T10:14:16.781Z,142.53
2023-04-10T10:15:16.740Z,138.80
2023-04-10T10:16:16.841Z,139.61
2023-04-10T10:17:19.861Z,135.85
2023-04-10T10:18:16.784Z,137.34
2023-04-10T10:19:16.819Z,138.66
2023-04-10T10:20:16.756Z,140.84
2023-04-10T10:21:16.854Z,143.06
2023-04-10T10:22:16.757Z,141.82
2023-04-10T10:23:16.730Z,139.54
2023-04-10T10:24:16.788Z,138.14
2023-04-10T10:25:16.756Z,132.55
2023-04-10T10:26:16.740Z,133.21
2023-04-10T10:27:16.738Z,139.73
2023-04-10T10:28:16.731Z,137.14
2023-04-10T10:29:16.714Z,138.51
2023-04-10T10:30:28.887Z,134.27
2023-04-10T10:31:17.785Z,134.68
2023-04-10T10:32:16.727Z,135.10
2023-04-10T10:33:16.679Z,136.46
2023-04-10T10:34:16.739Z,135.66
2023-04-10T10:35:16.695Z,137.94
2023-04-10T10:36:16.680Z,137.42
2023-04-10T10:37:16.665Z,134.29
2023-04-10T10:38:16.659Z,137.54
2023-04-10T10:39:16.656Z,135.01
2023-04-10T10:40:16.648Z,134.23
2023-04-10T10:41:16.627Z,136.81
2023-04-10T10:42:16.617Z,134.37
2023-04-10T10:43:16.609Z,136.11
2023-04-10T10:44:16.640Z,130.82
2023-04-10T10:45:16.614Z,133.49
2023-04-10T10:46:16.706Z,132.89
2023-04-10T10:47:16.602Z,132.86
2023-04-10T10:48:16.645Z,134.68
2023-04-10T10:49:16.670Z,135.86
2023-04-10T10:50:16.732Z,132.63
2023-04-10T10:51:16.684Z,133.87
2023-04-10T10:52:16.732Z,130.65
2023-04-10T10:53:16.750Z,134.68
2023-04-10T10:54:16.751Z,134.89
2023-04-10T10:55:16.833Z,132.89
2023-04-10T10:56:16.834Z,134.42
2023-04-10T10:57:16.946Z,131.99
2023-04-10T10:58:16.872Z,132.56
2023-04-10T10:59:16.904Z,132.18
2023-04-10T11:00:16.927Z,130.61
2023-04-10T11:01:17.018Z,133.24
2023-04-10T11:02:17.036Z,133.62
2023-04-10T11:03:17.140Z,131.46
2023-04-10T11:04:17.087Z,133.88
2023-04-10T11:05:17.053Z,134.25
2023-04-10T11:06:17.120Z,135.38
2023-04-10T11:07:17.088Z,132.10
2023-04-10T11:08:17.122Z,134.96
2023-04-10T11:09:17.117Z,136.71
2023-04-10T11:10:17.147Z,134.59
2023-04-10T11:11:17.200Z,136.78
2023-04-10T11:12:17.188Z,136.05
2023-04-10T11:13:17.323Z,136.24
2023-04-10T11:14:17.237Z,136.97
2023-04-10T11:15:17.248Z,133.69
2023-04-10T11:16:17.298Z,132.64
2023-04-10T11:17:17.438Z,132.69
2023-04-10T11:18:17.329Z,135.27
2023-04-10T11:19:19.036Z,132.62
2023-04-10T11:20:17.302Z,136.73
2023-04-10T11:21:17.348Z,134.95
2023-04-10T11:22:17.333Z,134.43
2023-04-10T11:23:17.352Z,130.55
2023-04-10T11:24:17.277Z,131.46
2023-04-10T11:25:17.342Z,133.77
2023-04-10T11:26:17.280Z,129.05
2023-04-10T11:27:17.275Z,124.22
2023-04-10T11:28:17.252Z,130.30
2023-04-10T11:29:17.268Z,131.35
2023-04-10T11:30:17.284Z,129.03
2023-04-10T11:31:17.279Z,132.48
2023-04-10T11:32:17.241Z,132.53
2023-04-10T11:33:17.220Z,132.25
2023-04-10T11:34:17.232Z,133.74
2023-04-10T11:35:17.254Z,135.51
2023-04-10T11:36:17.276Z,131.82
2023-04-10T11:37:17.189Z,127.26
2023-04-10T11:38:17.168Z,131.58
2023-04-10T11:39:17.170Z,133.51
2023-04-10T11:40:17.214Z,131.38
2023-04-10T11:41:17.171Z,129.00
2023-04-10T11:42:17.190Z,129.62
2023-04-10T11:43:17.145Z,131.13
2023-04-10T11:44:17.140Z,127.43
2023-04-10T11:45:17.148Z,128.52
2023-04-10T11:46:17.223Z,130.46
2023-04-10T11:47:17.122Z,132.14
2023-04-10T11:48:17.157Z,125.84
2023-04-10T11:49:17.130Z,129.66
2023-04-10T11:50:17.126Z,128.96
2023-04-10T11:51:17.143Z,131.42
2023-04-10T11:52:17.126Z,125.99
2023-04-10T11:53:17.071Z,129.08
2023-04-10T11:54:17.085Z,128.88
2023-04-10T11:55:17.079Z,127.98
2023-04-10T11:56:17.090Z,126.30
2023-04-10T11:57:17.090Z,125.38
2023-04-10T11:58:17.029Z,128.27
2023-04-10T11:59:17.041Z,127.45
2023-04-10T12:00:17.072Z,127.51
2023-04-10T12:01:17.035Z,125.18
2023-04-10T12:02:17.203Z,127.56
2023-04-10T12:03:17.135Z,126.94
2023-04-10T12:04:17.256Z,125.96
2023-04-10T12:05:17.110Z,122.50
2023-04-10T12:06:16.968Z,118.61
2023-04-10T12:07:16.981Z,117.01
2023-04-10T12:08:16.961Z,118.95
2023-04-10T12:09:16.990Z,117.04
2023-04-10T12:10:16.980Z,117.25
2023-04-10T12:11:16.949Z,109.35
2023-04-10T12:12:16.971Z,113.42
2023-04-10T12:13:16.946Z,106.87
2023-04-10T12:14:16.959Z,101.50
2023-04-10T12:15:16.962Z,96.08
2023-04-10T12:16:16.974Z,90.97
2023-04-10T12:17:16.936Z,90.63
2023-04-10T12:18:16.914Z,81.16
2023-04-10T12:19:16.885Z,73.78
2023-04-10T12:20:16.901Z,77.02
2023-04-10T12:21:16.898Z,86.51
2023-04-10T12:22:16.901Z,78.06
2023-04-10T12:23:16.865Z,82.59
2023-04-10T12:24:16.885Z,77.37
2023-04-10T12:25:16.870Z,58.74
2023-04-10T12:26:16.865Z,61.34
2023-04-10T12:27:16.859Z,50.12
2023-04-10T12:28:16.856Z,54.53
2023-04-10T12:29:16.877Z,62.95
2023-04-10T12:30:16.836Z,52.13
2023-04-10T12:31:16.894Z,51.24
2023-04-10T12:32:16.805Z,51.03
2023-04-10T12:33:16.820Z,54.35
2023-04-10T12:34:16.825Z,50.03
2023-04-10T12:35:16.795Z,53.29
2023-04-10T12:36:16.796Z,44.03
2023-04-10T12:37:16.763Z,34.79
2023-04-10T12:38:16.757Z,45.99
2023-04-10T12:39:16.769Z,49.11
2023-04-10T12:40:16.728Z,47.00
2023-04-10T12:41:16.751Z,39.92
2023-04-10T12:42:16.729Z,18.98
2023-04-10T12:43:16.761Z,48.88
2023-04-10T12:44:16.742Z,55.40
2023-04-10T12:45:16.713Z,57.20
2023-04-10T12:46:16.757Z,58.90
2023-04-10T12:47:16.707Z,9.88
2023-04-10T12:48:16.709Z,16.54
2023-04-10T12:49:16.680Z,34.69
2023-04-10T12:50:16.687Z,7.69
2023-04-10T12:51:16.682Z,79.36
2023-04-10T12:52:16.647Z,67.36
2023-04-10T12:53:16.692Z,61.72
2023-04-10T12:54:16.653Z,64.07
2023-04-10T12:55:16.631Z,67.72
2023-04-10T12:56:16.638Z,74.96
2023-04-10T12:57:16.694Z,65.35
2023-04-10T12:58:16.726Z,40.53
2023-04-10T12:59:16.698Z,103.32
2023-04-10T13:00:16.729Z,98.80
2023-04-10T13:01:16.773Z,110.46
2023-04-10T13:02:16.819Z,96.13
2023-04-10T13:03:16.970Z,61.02
2023-04-10T13:04:16.845Z,30.90
2023-04-10T13:05:16.787Z,39.97
2023-04-10T13:06:16.818Z,0.00
2023-04-10T13:07:16.861Z,0.00
2023-04-10T13:08:16.904Z,46.54
2023-04-10T13:09:16.920Z,105.31
2023-04-10T13:10:16.975Z,141.32
2023-04-10T13:11:16.967Z,132.00
2023-04-10T13:12:17.003Z,95.83
2023-04-10T13:13:17.047Z,131.86
2023-04-10T13:14:17.083Z,122.55
2023-04-10T13:15:17.105Z,107.87
2023-04-10T13:16:17.158Z,123.76
2023-04-10T13:17:17.263Z,109.68
2023-04-10T13:18:17.178Z,109.83
2023-04-10T13:19:17.207Z,80.93
2023-04-10T13:20:17.207Z,98.19
2023-04-10T13:21:17.179Z,25.00
2023-04-10T13:22:17.232Z,40.13
2023-04-10T13:23:17.230Z,132.86
2023-04-10T13:24:17.309Z,151.63
2023-04-10T13:25:17.317Z,128.85
2023-04-10T13:26:17.327Z,116.90
2023-04-10T13:27:17.349Z,116.03
2023-04-10T13:28:17.389Z,158.46
2023-04-10T13:29:17.416Z,141.88
2023-04-10T13:30:17.437Z,175.33
2023-04-10T13:31:17.469Z,134.23
2023-04-10T13:32:17.444Z,102.53
2023-04-10T13:33:17.471Z,150.11
2023-04-10T13:34:17.497Z,103.46
2023-04-10T13:35:17.513Z,65.70
2023-04-10T13:36:17.640Z,31.94
2023-04-10T13:37:17.585Z,23.84
2023-04-10T13:38:19.925Z,128.74
2023-04-10T13:39:17.499Z,63.03
2023-04-10T13:40:17.483Z,9.36
2023-04-10T13:41:17.492Z,49.11
2023-04-10T13:42:17.540Z,163.50
2023-04-10T13:43:17.491Z,88.41
2023-04-10T13:44:17.520Z,141.97
2023-04-10T13:45:17.484Z,180.93
2023-04-10T13:46:17.476Z,135.77
2023-04-10T13:47:17.436Z,35.91
2023-04-10T13:48:17.611Z,152.77
2023-04-10T13:49:17.460Z,200.63
2023-04-10T13:50:17.456Z,208.08
2023-04-10T13:51:17.448Z,115.68
2023-04-10T13:52:17.441Z,163.29
2023-04-10T13:53:17.431Z,177.82
2023-04-10T13:54:17.538Z,110.28
2023-04-10T13:55:17.400Z,108.73
2023-04-10T13:56:17.389Z,73.10
2023-04-10T13:57:17.410Z,66.73
2023-04-10T13:58:17.400Z,115.49
2023-04-10T13:59:17.372Z,118.11
2023-04-10T14:00:17.353Z,212.26
2023-04-10T14:01:17.426Z,84.14
2023-04-10T14:02:17.488Z,79.47
2023-04-10T14:03:17.460Z,128.76
2023-04-10T14:04:17.376Z,190.09
2023-04-10T14:05:17.335Z,198.63
2023-04-10T14:06:17.341Z,239.68
2023-04-10T14:07:17.344Z,245.10
2023-04-10T14:08:17.310Z,231.08
2023-04-10T14:09:17.304Z,249.03
2023-04-10T14:10:17.312Z,243.51
2023-04-10T14:11:17.289Z,247.49
2023-04-10T14:12:17.306Z,250.61
2023-04-10T14:13:17.350Z,237.84
2023-04-10T14:14:17.342Z,236.65
2023-04-10T14:15:17.321Z,242.11
2023-04-10T14:16:17.255Z,250.49
2023-04-10T14:17:17.297Z,251.72
2023-04-10T14:18:17.216Z,226.27
2023-04-10T14:19:17.219Z,218.34
2023-04-10T14:20:17.214Z,214.75
2023-04-10T14:21:18.682Z,209.71
2023-04-10T14:22:17.233Z,199.79
2023-04-10T14:23:17.199Z,221.63
2023-04-10T14:24:17.192Z,244.43
2023-04-10T14:25:17.247Z,249.48
2023-04-10T14:26:17.207Z,243.59
2023-04-10T14:27:17.210Z,238.94
2023-04-10T14:28:17.172Z,245.37
2023-04-10T14:29:22.544Z,208.75
2023-04-10T14:30:18.196Z,188.66
2023-04-10T14:31:17.173Z,211.64
2023-04-10T14:32:17.225Z,213.84
2023-04-10T14:33:18.617Z,225.65
2023-04-10T14:34:17.206Z,275.43
2023-04-10T14:35:17.276Z,312.87
2023-04-10T14:36:17.332Z,242.89
2023-04-10T14:37:17.329Z,224.52
2023-04-10T14:38:17.342Z,218.60
2023-04-10T14:39:17.314Z,197.53
2023-04-10T14:40:17.311Z,205.73
2023-04-10T14:41:17.354Z,216.96
2023-04-10T14:42:17.396Z,207.77
2023-04-10T14:43:17.397Z,209.83
2023-04-10T14:44:17.360Z,228.90
2023-04-10T14:45:17.354Z,193.56
2023-04-10T14:46:17.463Z,212.50
2023-04-10T14:47:17.401Z,199.86
2023-04-10T14:48:17.649Z,211.31
2023-04-10T14:49:17.467Z,234.13
2023-04-10T14:50:17.436Z,232.34
2023-04-10T14:51:17.474Z,199.14
2023-04-10T14:52:17.489Z,197.14
2023-04-10T14:53:17.512Z,200.46
2023-04-10T14:54:17.555Z,223.66
2023-04-10T14:55:17.509Z,197.57
2023-04-10T14:56:17.585Z,187.12
2023-04-10T14:57:17.603Z,182.07
2023-04-10T14:58:17.583Z,198.85
2023-04-10T14:59:17.653Z,220.32
2023-04-10T15:00:17.709Z,228.65
2023-04-10T15:01:17.766Z,221.59
2023-04-10T15:02:17.743Z,220.73
2023-04-10T15:03:17.808Z,228.39
2023-04-10T15:04:17.793Z,229.20
2023-04-10T15:05:17.842Z,237.43
2023-04-10T15:06:17.869Z,237.81
2023-04-10T15:07:17.906Z,239.73
2023-04-10T15:08:17.981Z,248.94
2023-04-10T15:09:18.463Z,246.59
2023-04-10T15:10:18.104Z,249.38
2023-04-10T15:11:18.098Z,250.00
2023-04-10T15:12:18.124Z,247.81
2023-04-10T15:13:18.210Z,248.78
2023-04-10T15:14:18.231Z,250.00
2023-04-10T15:15:18.280Z,245.09
2023-04-10T15:16:18.363Z,246.54
2023-04-10T15:17:18.580Z,250.00
2023-04-10T15:18:18.401Z,249.59
2023-04-10T15:19:18.446Z,247.62
2023-04-10T15:20:18.489Z,248.55
2023-04-10T15:21:18.531Z,247.57
2023-04-10T15:22:18.633Z,248.71
2023-04-10T15:23:18.619Z,249.09
2023-04-10T15:24:18.655Z,250.00
2023-04-10T15:25:18.708Z,248.72
2023-04-10T15:26:18.718Z,249.95
2023-04-10T15:27:18.731Z,250.00
2023-04-10T15:28:18.801Z,249.51
2023-04-10T15:29:18.834Z,248.81
2023-04-10T15:30:18.913Z,248.05
2023-04-10T15:31:18.964Z,249.20
2023-04-10T15:32:19.033Z,248.17
2023-04-10T15:33:19.007Z,248.70
2023-04-10T15:34:19.043Z,248.09
2023-04-10T15:35:19.094Z,250.00
2023-04-10T15:36:19.094Z,249.73
2023-04-10T15:37:19.201Z,247.88
2023-04-10T15:38:19.196Z,248.53
2023-04-10T15:39:19.250Z,249.32
2023-04-10T15:40:19.272Z,250.07
2023-04-10T15:41:19.333Z,248.51
2023-04-10T15:42:19.416Z,247.87
2023-04-10T15:43:19.435Z,247.70
2023-04-10T15:44:19.437Z,250.00
2023-04-10T15:45:19.469Z,248.70
2023-04-10T15:46:19.555Z,247.72
2023-04-10T15:47:19.551Z,248.82
2023-04-10T15:48:19.621Z,248.60
2023-04-10T15:49:29.820Z,249.07
2023-04-10T15:50:20.664Z,249.20
2023-04-10T15:51:19.634Z,249.41
2023-04-10T15:52:19.644Z,249.34
2023-04-10T15:53:19.624Z,250.29
2023-04-10T15:54:19.629Z,251.38
2023-04-10T15:55:19.637Z,247.16
2023-04-10T15:56:19.604Z,247.08
2023-04-10T15:57:19.661Z,247.27
2023-04-10T15:58:19.600Z,247.61
2023-04-10T15:59:19.612Z,246.75
2023-04-10T16:00:19.617Z,247.63
2023-04-10T16:01:19.675Z,249.24
2023-04-10T16:02:19.732Z,247.60
2023-04-10T16:03:19.811Z,249.78
2023-04-10T16:04:19.897Z,248.01
2023-04-10T16:05:19.902Z,247.21
2023-04-10T16:06:19.923Z,248.88
2023-04-10T16:07:19.986Z,249.86
2023-04-10T16:08:19.998Z,246.25
2023-04-10T16:10:20.050Z,248.77
2023-04-10T16:11:20.016Z,248.02
2023-04-10T16:12:20.020Z,247.34
2023-04-10T16:13:20.028Z,246.88
2023-04-10T16:14:20.068Z,246.83
2023-04-10T16:15:20.038Z,246.66
2023-04-10T16:16:20.030Z,247.59
2023-04-10T16:17:20.102Z,246.40
2023-04-10T16:18:19.969Z,248.77
2023-04-10T16:19:19.978Z,247.65
2023-04-10T16:20:19.982Z,249.09
2023-04-10T16:21:19.958Z,248.06
2023-04-10T16:22:19.943Z,247.76
2023-04-10T16:23:19.944Z,248.67
2023-04-10T16:24:19.969Z,247.77
2023-04-10T16:25:21.663Z,247.75
2023-04-10T16:26:19.921Z,246.07
2023-04-10T16:27:19.923Z,244.42
2023-04-10T16:28:19.908Z,245.04
2023-04-10T16:29:19.934Z,246.99
2023-04-10T16:30:19.951Z,244.77
2023-04-10T16:31:20.001Z,243.78
2023-04-10T16:32:20.038Z,244.83
2023-04-10T16:33:20.113Z,244.66
2023-04-10T16:34:20.118Z,243.96
2023-04-10T16:35:20.236Z,246.05
2023-04-10T16:36:20.274Z,244.63
2023-04-10T16:37:20.335Z,245.49
2023-04-10T16:38:20.372Z,246.07
2023-04-10T16:39:20.423Z,243.19
2023-04-10T16:40:20.457Z,244.06
2023-04-10T16:41:20.625Z,244.75
2023-04-10T16:42:20.520Z,243.80
2023-04-10T16:43:20.688Z,244.00
2023-04-10T16:44:20.631Z,244.60
2023-04-10T16:45:20.751Z,245.23
2023-04-10T16:46:20.743Z,245.80
2023-04-10T16:47:20.718Z,243.76
2023-04-10T16:48:20.795Z,244.95
2023-04-10T16:49:20.841Z,244.22
2023-04-10T16:50:20.868Z,243.88
2023-04-10T16:51:20.950Z,244.06
2023-04-10T16:52:20.972Z,243.38
2023-04-10T16:53:21.008Z,244.23
2023-04-10T16:54:21.053Z,243.76
2023-04-10T16:55:21.074Z,244.17
2023-04-10T16:56:21.127Z,244.85
2023-04-10T16:57:21.188Z,244.56
2023-04-10T16:58:21.164Z,244.87
2023-04-10T16:59:21.260Z,244.31
2023-04-10T17:00:21.271Z,245.50
